Time;durP1;ratioP1;P1;durP2;ratioP2;P2;SDS_P1;SDS_P2;PMS_P1;PMS_P2;Temp;Humidity;BMP_temperature;BMP_pressure;BME280_temperature;BME280_humidity;BME280_pressure;Samples;Min_cycle;Max_cycle;Signal;HPM_P1;HPM_P2
2023/08/28 00:00:32;;;;;;;4.80;4.80;;;12.30;99.90;;;;;;4975276;28;20462;-68
2023/08/28 00:03:00;;;;;;;4.73;4.73;;;12.30;99.90;;;;;;4975239;28;20753;-69
2023/08/28 00:05:30;;;;;;;4.43;4.43;;;12.20;99.90;;;;;;4968489;28;20537;-68
2023/08/28 00:07:59;;;;;;;5.27;5.17;;;12.20;99.90;;;;;;4964436;28;20483;-67
2023/08/28 00:10:27;;;;;;;5.20;5.10;;;12.20;99.90;;;;;;4957108;28;20470;-67
2023/08/28 00:12:54;;;;;;;4.93;4.93;;;12.20;99.90;;;;;;4968461;28;21011;-66
2023/08/28 00:15:22;;;;;;;5.33;5.23;;;12.20;99.90;;;;;;4969708;28;20530;-66
2023/08/28 00:17:49;;;;;;;5.40;5.30;;;12.10;99.90;;;;;;4961161;28;20511;-67
2023/08/28 00:20:17;;;;;;;5.93;5.83;;;12.00;99.90;;;;;;4970706;28;20511;-67
2023/08/28 00:22:45;;;;;;;5.63;5.53;;;12.10;99.90;;;;;;4955077;28;20465;-67
2023/08/28 00:25:13;;;;;;;5.53;5.43;;;12.20;99.90;;;;;;4962945;28;20623;-68
2023/08/28 00:27:39;;;;;;;4.27;4.27;;;12.20;99.90;;;;;;4969776;28;20456;-66
2023/08/28 00:30:08;;;;;;;4.80;4.80;;;12.20;99.90;;;;;;4965160;28;20472;-68
2023/08/28 00:32:35;;;;;;;4.00;4.00;;;12.20;99.90;;;;;;4969668;28;20949;-67
2023/08/28 00:35:01;;;;;;;4.13;4.13;;;12.30;99.90;;;;;;4963984;28;20545;-67
2023/08/28 00:37:29;;;;;;;4.03;4.03;;;12.20;99.90;;;;;;4970623;28;20871;-68
2023/08/28 00:39:56;;;;;;;4.53;4.53;;;12.00;99.90;;;;;;4962501;28;20835;-66
2023/08/28 00:42:25;;;;;;;4.40;4.40;;;11.90;99.90;;;;;;4970806;28;20486;-66
2023/08/28 00:44:52;;;;;;;5.83;5.73;;;11.80;99.90;;;;;;4965463;28;20498;-67
2023/08/28 00:47:19;;;;;;;5.80;5.70;;;11.90;99.90;;;;;;4959961;28;20475;-67
2023/08/28 00:49:46;;;;;;;5.20;5.10;;;12.00;99.90;;;;;;4965561;28;20953;-66
2023/08/28 00:52:14;;;;;;;4.90;4.90;;;12.00;99.90;;;;;;4968416;28;20464;-67
2023/08/28 00:54:42;;;;;;;5.60;5.50;;;12.00;99.90;;;;;;4970132;28;20503;-67
2023/08/28 00:57:10;;;;;;;4.97;4.97;;;11.90;99.90;;;;;;4967976;28;20468;-67
2023/08/28 00:59:39;;;;;;;5.70;5.60;;;12.00;99.90;;;;;;4959392;28;20466;-67
2023/08/28 01:02:07;;;;;;;5.40;5.30;;;12.00;99.90;;;;;;4959754;28;20499;-66
2023/08/28 01:04:36;;;;;;;5.40;5.30;;;12.00;99.90;;;;;;4966590;28;20460;-69
2023/08/28 01:07:12;;;;;;;4.77;4.77;;;12.10;99.90;;;;;;4967058;28;20618;-67
2023/08/28 01:09:50;;;;;;;4.30;4.30;;;12.20;99.90;;;;;;4960556;28;20476;-67
2023/08/28 01:12:26;;;;;;;4.20;4.20;;;12.10;99.90;;;;;;4963844;28;20458;-67
2023/08/28 01:15:01;;;;;;;4.47;4.47;;;12.10;99.90;;;;;;4969854;28;20462;-68
2023/08/28 01:17:31;;;;;;;4.83;4.83;;;12.00;99.90;;;;;;4961317;28;20467;-68
2023/08/28 01:19:59;;;;;;;5.30;5.20;;;11.90;99.90;;;;;;4961024;28;20480;-66
2023/08/28 01:22:32;;;;;;;5.83;5.73;;;11.80;99.90;;;;;;4967913;28;20475;-66
2023/08/28 01:25:09;;;;;;;5.73;5.63;;;11.90;99.90;;;;;;4959449;28;20569;-68
2023/08/28 01:27:38;;;;;;;6.33;6.23;;;11.90;99.90;;;;;;4970429;28;20466;-67
2023/08/28 01:30:07;;;;;;;6.47;6.37;;;12.00;99.90;;;;;;4966462;28;20470;-67
2023/08/28 01:32:34;;;;;;;5.40;5.30;;;11.90;99.90;;;;;;4966696;28;20468;-67
2023/08/28 01:35:04;;;;;;;5.50;5.40;;;11.90;99.90;;;;;;4969693;28;20471;-68
2023/08/28 01:37:40;;;;;;;5.20;5.10;;;11.90;99.90;;;;;;4959723;28;20546;-69
2023/08/28 01:40:13;;;;;;;5.30;5.20;;;11.90;99.90;;;;;;4958089;28;20569;-68
2023/08/28 01:42:42;;;;;;;5.40;5.30;;;11.90;99.90;;;;;;4970112;28;20459;-67
2023/08/28 01:45:09;;;;;;;5.43;5.33;;;11.70;99.90;;;;;;4968229;28;20479;-67
2023/08/28 01:47:36;;;;;;;5.00;5.00;;;11.60;99.90;;;;;;4967602;28;20475;-67
2023/08/28 01:50:03;;;;;;;5.97;5.87;;;11.50;99.90;;;;;;4970005;28;20530;-67
2023/08/28 01:52:31;;;;;;;5.90;5.80;;;11.40;99.90;;;;;;4965920;28;20582;-69
2023/08/28 01:55:00;;;;;;;6.00;5.90;;;11.30;99.90;;;;;;4961199;28;21025;-67
2023/08/28 01:57:28;;;;;;;6.80;6.70;;;11.30;99.90;;;;;;4961116;28;20480;-68
2023/08/28 01:59:55;;;;;;;7.53;7.43;;;11.40;99.90;;;;;;4968550;28;20455;-67
2023/08/28 02:02:22;;;;;;;6.57;6.47;;;11.50;99.90;;;;;;4969761;28;20463;-69
2023/08/28 02:04:49;;;;;;;6.47;6.37;;;11.50;99.90;;;;;;4969610;28;20466;-67
2023/08/28 02:07:18;;;;;;;5.50;5.40;;;11.60;99.90;;;;;;4963301;28;20881;-68
2023/08/28 02:09:44;;;;;;;4.80;4.80;;;11.70;99.90;;;;;;4969861;28;20518;-67
2023/08/28 02:12:11;;;;;;;5.40;5.30;;;11.60;99.90;;;;;;4958870;28;20963;-68
2023/08/28 02:14:39;;;;;;;5.70;5.60;;;11.60;99.90;;;;;;4969772;28;20455;-67
2023/08/28 02:17:06;;;;;;;5.57;5.47;;;11.60;99.90;;;;;;4964031;28;20464;-68
2023/08/28 02:19:34;;;;;;;5.77;5.67;;;11.50;99.90;;;;;;4969836;28;20495;-67
2023/08/28 02:22:02;;;;;;;6.43;6.33;;;11.50;99.90;;;;;;4966824;28;20997;-67
2023/08/28 02:24:30;;;;;;;5.47;5.37;;;11.50;99.90;;;;;;4969748;28;20526;-67
2023/08/28 02:26:58;;;;;;;5.70;5.60;;;11.60;99.90;;;;;;4968475;28;20554;-68
2023/08/28 02:29:24;;;;;;;5.43;5.33;;;11.60;99.90;;;;;;4961085;28;20833;-68
2023/08/28 02:31:53;;;;;;;5.50;5.40;;;11.60;99.90;;;;;;4966487;28;20518;-67
2023/08/28 02:34:20;;;;;;;6.47;6.37;;;11.50;99.90;;;;;;4958461;28;20464;-68
2023/08/28 02:36:47;;;;;;;5.77;5.67;;;11.50;99.90;;;;;;4967836;28;20459;-68
2023/08/28 02:39:16;;;;;;;5.50;5.40;;;11.60;99.90;;;;;;4967425;28;20469;-68
2023/08/28 02:41:43;;;;;;;5.10;5.10;;;11.60;99.90;;;;;;4965897;28;20555;-67
2023/08/28 02:44:10;;;;;;;4.50;4.50;;;11.60;99.90;;;;;;4973113;28;20455;-67
2023/08/28 02:46:37;;;;;;;5.60;5.50;;;11.60;99.90;;;;;;4966897;28;20495;-67
2023/08/28 02:49:06;;;;;;;4.73;4.73;;;11.60;99.90;;;;;;4969852;28;20459;-68
2023/08/28 02:51:33;;;;;;;5.80;5.70;;;11.60;99.90;;;;;;4969457;28;20475;-68
2023/08/28 02:54:00;;;;;;;5.63;5.53;;;11.60;99.90;;;;;;4971592;28;20869;-68
2023/08/28 02:56:35;;;;;;;5.47;5.37;;;11.50;99.90;;;;;;4960445;28;20527;-69
2023/08/28 02:59:02;;;;;;;5.30;5.20;;;11.50;99.90;;;;;;4967712;28;20490;-68
2023/08/28 03:01:34;;;;;;;5.80;5.70;;;11.40;99.90;;;;;;4970483;28;20475;-68
2023/08/28 03:04:04;;;;;;;5.90;5.80;;;11.30;99.90;;;;;;4969689;28;20491;-67
2023/08/28 03:06:35;;;;;;;5.23;5.13;;;11.30;99.90;;;;;;4968402;28;20491;-69
2023/08/28 03:09:03;;;;;;;5.57;5.47;;;11.30;99.90;;;;;;4962317;28;20786;-67
2023/08/28 03:11:30;;;;;;;5.80;5.70;;;11.30;99.90;;;;;;4969655;28;21014;-68
2023/08/28 03:13:57;;;;;;;6.07;5.97;;;11.20;99.90;;;;;;4969452;28;20970;-66
2023/08/28 03:16:24;;;;;;;6.13;6.03;;;11.30;99.90;;;;;;4971561;28;20460;-67
2023/08/28 03:18:51;;;;;;;6.00;5.90;;;11.30;99.90;;;;;;4973056;28;20464;-68
2023/08/28 03:21:18;;;;;;;6.33;6.23;;;11.30;99.90;;;;;;4962433;28;20471;-68
2023/08/28 03:23:46;;;;;;;5.90;5.80;;;11.40;99.90;;;;;;4964587;28;20962;-67
2023/08/28 03:26:13;;;;;;;6.30;6.20;;;11.50;99.90;;;;;;4965320;28;20532;-68
2023/08/28 03:28:40;;;;;;;5.83;5.73;;;11.50;99.90;;;;;;4969388;28;20931;-67
2023/08/28 03:31:07;;;;;;;5.93;5.83;;;11.50;99.90;;;;;;4969366;28;20472;-67
2023/08/28 03:33:35;;;;;;;5.83;5.73;;;11.50;99.90;;;;;;4968085;28;20462;-67
2023/08/28 03:36:02;;;;;;;5.63;5.53;;;11.50;99.90;;;;;;4972600;28;20550;-67
2023/08/28 03:38:29;;;;;;;5.50;5.40;;;11.50;99.90;;;;;;4962318;28;20921;-68
2023/08/28 03:40:57;;;;;;;5.73;5.63;;;11.50;99.90;;;;;;4961351;28;20463;-67
2023/08/28 03:43:24;;;;;;;6.30;6.20;;;11.50;99.90;;;;;;4972213;28;20455;-67
2023/08/28 03:45:51;;;;;;;5.80;5.70;;;11.50;99.90;;;;;;4973574;28;20843;-67
2023/08/28 03:48:18;;;;;;;5.53;5.43;;;11.50;99.90;;;;;;4972104;28;20467;-68
2023/08/28 03:50:46;;;;;;;6.40;6.30;;;11.40;99.90;;;;;;4966053;28;20472;-67
2023/08/28 03:53:13;;;;;;;6.10;6.00;;;11.40;99.90;;;;;;4971326;28;20467;-68
2023/08/28 03:55:42;;;;;;;5.50;5.40;;;11.50;99.90;;;;;;4962060;28;21148;-67
2023/08/28 03:58:11;;;;;;;6.10;6.00;;;11.50;99.90;;;;;;4971821;28;20464;-67
2023/08/28 04:00:39;;;;;;;6.00;5.90;;;11.50;99.90;;;;;;4971556;28;20447;-67
2023/08/28 04:03:06;;;;;;;6.00;5.90;;;11.50;99.90;;;;;;4967297;28;20463;-68
2023/08/28 04:05:37;;;;;;;6.17;6.07;;;11.60;99.90;;;;;;4971767;28;20464;-67
2023/08/28 04:08:04;;;;;;;4.90;4.90;;;11.60;99.90;;;;;;4959865;28;20571;-67
2023/08/28 04:10:32;;;;;;;5.30;5.20;;;11.60;99.90;;;;;;4971868;28;20546;-67
2023/08/28 04:12:58;;;;;;;4.83;4.83;;;11.60;99.90;;;;;;4963756;28;20475;-67
2023/08/28 04:15:27;;;;;;;4.63;4.63;;;11.70;99.90;;;;;;4966381;28;20497;-66
2023/08/28 04:17:56;;;;;;;4.60;4.60;;;11.70;99.90;;;;;;4964329;28;20487;-67
2023/08/28 04:20:23;;;;;;;5.20;5.10;;;11.60;99.90;;;;;;4971744;28;20623;-67
2023/08/28 04:22:50;;;;;;;4.30;4.30;;;11.60;99.90;;;;;;4963979;28;21031;-66
2023/08/28 04:25:17;;;;;;;4.73;4.73;;;11.60;99.90;;;;;;4966931;28;20488;-67
2023/08/28 04:27:44;;;;;;;5.60;5.50;;;11.60;99.90;;;;;;4968240;28;20499;-68
2023/08/28 04:30:12;;;;;;;5.80;5.70;;;11.60;99.90;;;;;;4961974;28;20463;-67
2023/08/28 04:32:42;;;;;;;5.83;5.73;;;11.50;99.90;;;;;;4971447;28;20460;-66
2023/08/28 04:35:09;;;;;;;6.17;6.07;;;11.40;99.90;;;;;;4967309;28;20463;-66
2023/08/28 04:37:37;;;;;;;6.03;5.93;;;11.30;99.90;;;;;;4964414;28;20956;-66
2023/08/28 04:40:06;;;;;;;6.20;6.10;;;11.30;99.90;;;;;;4968529;28;20526;-67
2023/08/28 04:42:32;;;;;;;6.57;6.47;;;11.20;99.90;;;;;;4963683;28;20522;-66
2023/08/28 04:44:59;;;;;;;7.10;7.00;;;11.10;99.90;;;;;;4971177;28;20463;-67
2023/08/28 04:47:26;;;;;;;7.80;7.70;;;11.10;99.90;;;;;;4969341;28;20507;-67
2023/08/28 04:49:54;;;;;;;7.73;7.63;;;11.00;99.90;;;;;;4967374;28;20472;-67
2023/08/28 04:52:22;;;;;;;7.20;7.10;;;11.20;99.90;;;;;;4970885;28;20974;-67
2023/08/28 04:54:49;;;;;;;7.03;6.93;;;11.20;99.90;;;;;;4964279;28;20932;-66
2023/08/28 04:57:16;;;;;;;7.30;7.20;;;11.20;99.90;;;;;;4968191;28;20471;-67
2023/08/28 04:59:43;;;;;;;6.63;6.53;;;11.30;99.90;;;;;;4965271;28;20537;-67
2023/08/28 05:02:10;;;;;;;6.20;6.10;;;11.30;99.90;;;;;;4960711;28;20532;-67
2023/08/28 05:04:36;;;;;;;6.67;6.57;;;11.30;99.90;;;;;;4969476;28;20460;-66
2023/08/28 05:07:07;;;;;;;6.43;6.33;;;11.20;99.90;;;;;;4966807;28;20499;-67
2023/08/28 05:09:34;;;;;;;6.67;6.57;;;11.20;99.90;;;;;;4970035;28;20444;-67
2023/08/28 05:12:02;;;;;;;7.00;6.90;;;11.10;99.90;;;;;;4967988;28;20470;-67
2023/08/28 05:14:29;;;;;;;6.20;6.10;;;11.10;99.90;;;;;;4964200;28;20464;-67
2023/08/28 05:16:56;;;;;;;7.10;7.00;;;11.10;99.90;;;;;;4955936;28;20464;-68
2023/08/28 05:19:23;;;;;;;6.47;6.37;;;11.20;99.90;;;;;;4964291;28;20486;-66
2023/08/28 05:21:50;;;;;;;6.33;6.23;;;11.20;99.90;;;;;;4964858;28;20502;-67
2023/08/28 05:24:18;;;;;;;6.50;6.40;;;11.20;99.90;;;;;;4969784;28;20455;-66
2023/08/28 05:26:45;;;;;;;6.73;6.63;;;11.20;99.90;;;;;;4965905;28;20550;-66
2023/08/28 05:29:12;;;;;;;7.10;7.00;;;11.20;99.90;;;;;;4967481;28;20471;-66
2023/08/28 05:31:40;;;;;;;6.90;6.80;;;11.30;99.90;;;;;;4954651;28;20463;-66
2023/08/28 05:34:08;;;;;;;7.40;7.30;;;11.40;99.90;;;;;;4965780;28;20966;-67
2023/08/28 05:36:35;;;;;;;7.30;7.20;;;11.50;99.90;;;;;;4966643;28;20498;-66
2023/08/28 05:39:03;;;;;;;7.60;7.50;;;11.60;99.90;;;;;;4965651;28;20467;-67
2023/08/28 05:41:31;;;;;;;7.47;7.37;;;11.60;99.90;;;;;;4967082;28;21028;-66
2023/08/28 05:43:58;;;;;;;7.20;7.10;;;11.80;99.90;;;;;;4962157;28;20484;-68
2023/08/28 05:46:26;;;;;;;7.10;7.00;;;11.80;99.90;;;;;;4959067;28;20511;-66
2023/08/28 05:48:53;;;;;;;7.40;7.30;;;11.90;99.90;;;;;;4964858;28;20466;-66
2023/08/28 05:51:21;;;;;;;6.93;6.83;;;12.10;99.90;;;;;;4967164;28;20463;-67
2023/08/28 05:53:48;;;;;;;7.33;7.23;;;12.20;99.90;;;;;;4967918;28;20486;-67
2023/08/28 05:56:15;;;;;;;7.17;7.07;;;12.30;99.90;;;;;;4961977;28;20884;-67
2023/08/28 05:58:45;;;;;;;7.27;7.17;;;12.30;99.90;;;;;;4967061;28;20463;-67
2023/08/28 06:01:12;;;;;;;7.03;6.93;;;12.40;99.90;;;;;;4970884;28;20482;-67
2023/08/28 06:03:40;;;;;;;6.80;6.70;;;12.50;99.90;;;;;;4958847;28;20867;-66
2023/08/28 06:06:07;;;;;;;6.53;6.43;;;12.60;99.90;;;;;;4953608;28;20482;-67
2023/08/28 06:08:34;;;;;;;6.77;6.67;;;12.70;99.90;;;;;;4960029;28;20534;-67
2023/08/28 06:11:00;;;;;;;6.57;6.47;;;12.70;99.90;;;;;;4959463;28;20472;-67
2023/08/28 06:13:27;;;;;;;6.80;6.70;;;12.80;99.90;;;;;;4967335;28;20467;-66
2023/08/28 06:15:55;;;;;;;6.80;6.70;;;12.90;99.90;;;;;;4964690;28;21465;-67
2023/08/28 06:18:22;;;;;;;5.73;5.63;;;13.10;99.90;;;;;;4970988;28;20474;-67
2023/08/28 06:20:49;;;;;;;5.60;5.50;;;13.20;99.90;;;;;;4954790;28;20480;-65
2023/08/28 06:23:17;;;;;;;5.90;5.80;;;13.30;99.90;;;;;;4955534;28;20836;-67
2023/08/28 06:25:47;;;;;;;6.03;5.93;;;13.50;99.90;;;;;;4966762;28;20451;-66
2023/08/28 06:28:14;;;;;;;6.10;6.00;;;13.60;99.90;;;;;;4965676;28;21014;-68
2023/08/28 06:30:41;;;;;;;6.30;6.20;;;13.60;99.90;;;;;;4966509;28;20566;-67
2023/08/28 06:33:09;;;;;;;6.27;6.17;;;13.70;99.90;;;;;;4959022;28;20556;-68
2023/08/28 06:35:37;;;;;;;6.33;6.23;;;13.80;99.90;;;;;;4956669;28;20522;-67
2023/08/28 06:38:04;;;;;;;6.80;6.70;;;13.90;99.90;;;;;;4965618;28;20462;-68
2023/08/28 06:40:30;;;;;;;6.90;6.80;;;13.90;99.90;;;;;;4959920;28;20518;-67
2023/08/28 06:42:57;;;;;;;6.70;6.60;;;13.90;99.90;;;;;;4961433;28;20535;-67
2023/08/28 06:45:24;;;;;;;6.30;6.20;;;14.00;99.90;;;;;;4963605;28;21204;-68
2023/08/28 06:47:50;;;;;;;6.03;5.93;;;14.00;99.90;;;;;;4966742;28;20494;-67
2023/08/28 06:50:20;;;;;;;5.67;5.57;;;14.10;99.90;;;;;;4957715;28;20472;-66
2023/08/28 06:52:48;;;;;;;6.17;6.07;;;14.20;99.90;;;;;;4960000;28;20506;-68
2023/08/28 06:55:15;;;;;;;5.67;5.57;;;14.30;99.90;;;;;;4959555;28;21023;-68
2023/08/28 06:57:43;;;;;;;5.60;5.50;;;14.30;99.90;;;;;;4965127;28;20471;-67
2023/08/28 07:00:12;;;;;;;4.80;4.80;;;14.30;99.90;;;;;;4967065;28;20455;-66
2023/08/28 07:02:40;;;;;;;5.13;5.03;;;14.40;99.90;;;;;;4967683;28;20464;-68
2023/08/28 07:05:07;;;;;;;4.30;4.30;;;14.50;99.90;;;;;;4960551;28;20522;-67
2023/08/28 07:07:35;;;;;;;4.70;4.70;;;14.50;99.90;;;;;;4961587;28;20495;-68
2023/08/28 07:10:04;;;;;;;4.33;4.33;;;14.60;99.90;;;;;;4960224;28;20882;-67
2023/08/28 07:12:31;;;;;;;4.17;4.17;;;14.70;99.90;;;;;;4967450;28;20454;-67
2023/08/28 07:15:50;;;;;;;4.20;4.20;;;14.80;99.90;;;;;;4960110;28;20464;-66
2023/08/28 07:18:17;;;;;;;3.87;3.87;;;14.90;99.90;;;;;;4961320;28;22073;-66
2023/08/28 07:20:45;;;;;;;4.37;4.37;;;15.00;99.90;;;;;;4967446;28;20514;-68
2023/08/28 07:23:13;;;;;;;4.30;4.30;;;15.10;99.90;;;;;;4961838;28;20976;-66
2023/08/28 07:25:39;;;;;;;4.80;4.80;;;15.20;99.90;;;;;;4968359;28;20576;-66
2023/08/28 07:28:07;;;;;;;4.30;4.30;;;15.20;99.90;;;;;;4961773;28;20907;-67
2023/08/28 07:30:35;;;;;;;4.70;4.70;;;15.30;99.90;;;;;;4967703;28;20471;-65
2023/08/28 07:33:02;;;;;;;5.00;5.00;;;15.30;99.90;;;;;;4957049;28;20978;-67
2023/08/28 07:35:35;;;;;;;4.30;4.30;;;15.40;99.90;;;;;;4968514;28;20491;-65
2023/08/28 07:38:04;;;;;;;4.60;4.60;;;15.50;99.90;;;;;;4967346;28;20563;-67
2023/08/28 07:40:35;;;;;;;5.33;5.23;;;15.60;99.90;;;;;;4970578;28;20463;-66
2023/08/28 07:43:02;;;;;;;5.37;5.27;;;15.70;99.90;;;;;;4970681;28;20542;-67
2023/08/28 07:45:30;;;;;;;5.63;5.53;;;15.80;99.90;;;;;;4960773;28;20954;-66
2023/08/28 07:47:58;;;;;;;6.00;5.90;;;15.90;99.90;;;;;;4970624;28;20501;-66
2023/08/28 07:50:28;;;;;;;6.40;6.30;;;15.90;99.90;;;;;;4969855;28;20809;-66
2023/08/28 07:52:54;;;;;;;6.80;6.70;;;16.10;99.90;;;;;;4969422;28;20468;-66
2023/08/28 07:55:21;;;;;;;6.70;6.60;;;16.20;99.90;;;;;;4951886;28;20855;-67
2023/08/28 07:57:49;;;;;;;7.43;7.33;;;16.40;99.90;;;;;;4950944;28;21010;-66
2023/08/28 08:00:20;;;;;;;7.80;7.70;;;16.40;99.90;;;;;;4950807;28;20464;-67
2023/08/28 08:02:47;;;;;;;7.03;6.93;;;16.50;99.90;;;;;;4945858;28;20468;-66
2023/08/28 08:05:14;;;;;;;7.47;7.37;;;16.50;99.90;;;;;;4941053;28;20471;-67
2023/08/28 08:07:41;;;;;;;7.90;7.80;;;16.50;99.90;;;;;;4947210;28;20532;-66
2023/08/28 08:10:10;;;;;;;7.77;7.67;;;16.60;99.90;;;;;;4943738;28;20988;-67
2023/08/28 08:12:38;;;;;;;7.60;7.50;;;16.60;99.90;;;;;;4948132;29;21016;-67
2023/08/28 08:15:07;;;;;;;8.53;8.43;;;16.80;99.90;;;;;;4949964;28;20492;-66
2023/08/28 08:17:36;;;;;;;9.13;8.97;;;16.90;99.90;;;;;;4941282;29;20465;-65
2023/08/28 08:20:05;;;;;;;8.40;8.30;;;17.00;99.90;;;;;;4949874;29;20844;-67
2023/08/28 08:22:32;;;;;;;8.70;8.60;;;17.10;99.90;;;;;;4942581;28;20472;-67
2023/08/28 08:24:58;;;;;;;8.90;8.80;;;17.20;99.90;;;;;;4950643;28;20464;-67
2023/08/28 08:27:27;;;;;;;9.30;9.10;;;17.40;99.90;;;;;;4950327;28;20546;-67
2023/08/28 08:29:54;;;;;;;8.40;8.30;;;17.30;99.90;;;;;;4945429;28;20942;-68
2023/08/28 08:32:22;;;;;;;9.27;9.07;;;17.50;99.90;;;;;;4958160;28;20456;-66
2023/08/28 08:34:49;;;;;;;9.50;9.30;;;17.80;99.90;;;;;;4950947;28;20472;-67
2023/08/28 08:37:17;;;;;;;10.13;9.93;;;18.10;99.90;;;;;;4940180;28;20810;-66
2023/08/28 08:39:44;;;;;;;9.97;9.77;;;18.20;99.90;;;;;;4949708;28;21016;-68
2023/08/28 08:42:12;;;;;;;11.00;10.80;;;18.30;99.90;;;;;;4949336;28;20453;-67
2023/08/28 08:44:40;;;;;;;10.73;10.53;;;18.30;99.90;;;;;;4945473;28;20959;-67
2023/08/28 08:47:08;;;;;;;11.30;11.00;;;18.70;99.90;;;;;;4941021;28;20583;-67
2023/08/28 08:49:40;;;;;;;11.90;11.60;;;18.60;99.90;;;;;;4950441;28;20500;-67
2023/08/28 08:52:10;;;;;;;12.23;11.93;;;18.70;99.90;;;;;;4950025;28;20460;-68
2023/08/28 08:54:42;;;;;;;12.20;11.90;;;19.00;99.90;;;;;;4957981;28;20591;-66
2023/08/28 08:57:14;;;;;;;11.80;11.50;;;18.90;99.90;;;;;;4963915;28;20471;-66
2023/08/28 08:59:43;;;;;;;12.53;12.23;;;19.00;99.90;;;;;;4967781;28;20555;-68
2023/08/28 09:02:12;;;;;;;12.73;12.43;;;19.50;99.90;;;;;;4972021;28;20497;-68
2023/08/28 09:04:42;;;;;;;12.67;12.37;;;19.70;99.90;;;;;;4958564;28;20467;-67
2023/08/28 09:07:10;;;;;;;12.90;12.57;;;20.10;99.90;;;;;;4965444;28;20471;-66
2023/08/28 09:09:39;;;;;;;13.20;12.80;;;20.00;99.90;;;;;;4966157;28;20538;-66
2023/08/28 09:12:07;;;;;;;12.97;12.60;;;20.10;99.90;;;;;;4967920;28;20466;-66
2023/08/28 09:14:34;;;;;;;13.40;13.00;;;20.30;99.90;;;;;;4957698;28;20471;-66
2023/08/28 09:17:01;;;;;;;13.30;12.90;;;20.70;99.90;;;;;;4966059;28;20452;-66
2023/08/28 09:19:31;;;;;;;13.50;13.10;;;21.00;99.90;;;;;;4967818;28;20471;-67
2023/08/28 09:22:00;;;;;;;13.30;12.90;;;21.00;99.90;;;;;;4968020;28;20459;-67
2023/08/28 09:24:26;;;;;;;13.40;13.00;;;20.90;99.90;;;;;;4964996;28;20495;-68
2023/08/28 09:26:54;;;;;;;13.20;12.80;;;21.10;99.90;;;;;;4964911;28;20852;-68
2023/08/28 09:29:23;;;;;;;13.50;13.10;;;21.20;99.90;;;;;;4966028;28;20491;-67
2023/08/28 09:31:52;;;;;;;13.20;12.80;;;21.40;99.90;;;;;;4961905;28;20483;-68
2023/08/28 09:34:20;;;;;;;13.30;12.90;;;21.90;99.90;;;;;;4962127;28;20471;-67
2023/08/28 09:36:48;;;;;;;13.00;12.60;;;22.00;99.90;;;;;;4966488;28;20490;-67
2023/08/28 09:39:16;;;;;;;13.40;13.00;;;22.10;99.90;;;;;;4967842;28;20463;-67
2023/08/28 09:41:44;;;;;;;13.50;13.10;;;21.60;99.90;;;;;;4964538;28;20779;-66
2023/08/28 09:44:11;;;;;;;12.73;12.40;;;21.50;99.90;;;;;;4962069;28;21108;-67
2023/08/28 09:46:42;;;;;;;13.00;12.60;;;21.70;99.90;;;;;;4958839;28;20472;-68
2023/08/28 09:49:10;;;;;;;12.70;12.40;;;21.80;99.90;;;;;;4966269;28;20494;-65
2023/08/28 09:51:42;;;;;;;12.77;12.47;;;21.90;99.90;;;;;;4966294;28;20937;-66
2023/08/28 09:54:10;;;;;;;12.90;12.50;;;22.20;99.90;;;;;;4960774;28;20495;-66
2023/08/28 09:56:39;;;;;;;13.10;12.70;;;22.60;99.90;;;;;;4959612;28;20470;-67
2023/08/28 09:59:08;;;;;;;13.00;12.60;;;22.20;99.90;;;;;;4960141;28;20463;-66
2023/08/28 10:01:37;;;;;;;12.60;12.30;;;21.90;99.90;;;;;;4954504;28;21382;-65
2023/08/28 10:04:06;;;;;;;12.50;12.20;;;22.00;99.90;;;;;;4961403;28;20542;-68
2023/08/28 10:06:35;;;;;;;12.70;12.40;;;22.00;99.90;;;;;;4965188;28;20854;-67
2023/08/28 10:09:05;;;;;;;12.10;11.80;;;22.00;99.90;;;;;;4965263;28;20499;-66
2023/08/28 10:11:39;;;;;;;12.10;11.80;;;21.90;99.90;;;;;;4967215;28;20596;-67
2023/08/28 10:14:07;;;;;;;12.20;11.90;;;22.10;99.90;;;;;;4965527;28;20655;-66
2023/08/28 10:16:37;;;;;;;12.50;12.20;;;22.40;99.90;;;;;;4963990;28;20669;-67
2023/08/28 10:19:26;;;;;;;12.47;12.17;;;22.30;99.90;;;;;;4959340;28;20471;-66
2023/08/28 10:21:54;;;;;;;12.50;12.20;;;22.10;99.90;;;;;;4958036;28;20582;-67
2023/08/28 10:24:22;;;;;;;12.70;12.30;;;21.80;99.90;;;;;;4961806;28;20479;-66
2023/08/28 10:26:52;;;;;;;12.40;12.10;;;21.60;99.90;;;;;;4955668;28;20471;-67
2023/08/28 10:29:20;;;;;;;12.30;12.00;;;21.70;99.90;;;;;;4963136;28;21084;-66
2023/08/28 10:31:48;;;;;;;12.50;12.20;;;21.80;99.90;;;;;;4967529;28;20464;-66
2023/08/28 10:34:17;;;;;;;12.30;12.00;;;21.80;99.90;;;;;;4963932;28;20467;-66
2023/08/28 10:36:46;;;;;;;12.50;12.20;;;21.60;99.90;;;;;;4964539;28;20459;-67
2023/08/28 10:39:13;;;;;;;12.20;11.90;;;21.30;99.90;;;;;;4958143;28;20519;-67
2023/08/28 10:41:41;;;;;;;12.20;11.90;;;21.30;99.90;;;;;;4964190;28;20616;-67
2023/08/28 10:44:12;;;;;;;12.10;11.80;;;21.20;99.90;;;;;;4966858;28;20455;-67
2023/08/28 10:46:41;;;;;;;12.40;12.10;;;21.30;99.90;;;;;;4964760;28;20980;-67
2023/08/28 10:49:08;;;;;;;12.33;12.03;;;21.40;99.90;;;;;;4966883;28;20602;-67
2023/08/28 10:51:36;;;;;;;12.53;12.23;;;21.60;99.90;;;;;;4961194;28;20479;-68
2023/08/28 10:54:09;;;;;;;12.30;12.00;;;21.70;99.90;;;;;;4965017;28;20911;-67
2023/08/28 10:56:37;;;;;;;12.10;11.80;;;22.30;99.90;;;;;;4956478;28;20598;-67
2023/08/28 10:59:41;;;;;;;12.30;12.00;;;22.00;99.90;;;;;;4962056;28;20451;-67
2023/08/28 11:02:09;;;;;;;12.53;12.23;;;22.80;99.90;;;;;;4945732;28;20463;-67
2023/08/28 11:04:37;;;;;;;12.20;11.90;;;22.90;99.90;;;;;;4970503;28;20478;-68
2023/08/28 11:07:05;;;;;;;12.70;12.30;;;22.70;99.90;;;;;;4967275;28;20668;-67
2023/08/28 11:09:37;;;;;;;12.33;12.03;;;23.10;99.90;;;;;;4962625;28;20487;-67
2023/08/28 11:12:26;;;;;;;12.20;11.90;;;23.50;99.90;;;;;;4970786;28;20459;-68
2023/08/28 11:15:03;;;;;;;13.13;12.73;;;23.80;99.90;;;;;;4970253;28;20510;-68
2023/08/28 11:17:34;;;;;;;13.30;12.90;;;24.60;99.90;;;;;;4967939;28;20534;-67
2023/08/28 11:20:06;;;;;;;13.30;12.90;;;24.90;99.90;;;;;;4967376;28;20584;-68
2023/08/28 11:22:35;;;;;;;13.40;13.00;;;25.10;99.90;;;;;;4967853;28;20467;-67
2023/08/28 11:25:04;;;;;;;13.80;13.40;;;25.10;99.90;;;;;;4965353;28;20465;-67
2023/08/28 11:27:32;;;;;;;13.43;13.03;;;25.20;99.90;;;;;;4962791;28;20464;-67
2023/08/28 11:30:05;;;;;;;13.20;12.80;;;24.50;99.90;;;;;;4968291;28;20503;-67
2023/08/28 11:32:32;;;;;;;13.53;13.13;;;24.40;99.90;;;;;;4968570;28;20550;-68
2023/08/28 11:35:00;;;;;;;13.30;12.90;;;24.40;99.90;;;;;;4966940;28;20475;-67
2023/08/28 11:37:31;;;;;;;13.40;13.00;;;24.60;99.90;;;;;;4967590;28;20939;-68
2023/08/28 11:39:59;;;;;;;13.63;13.23;;;24.50;99.90;;;;;;4962933;28;20527;-68
2023/08/28 11:42:26;;;;;;;12.83;12.53;;;24.60;99.90;;;;;;4968169;28;20471;-68
2023/08/28 11:44:53;;;;;;;13.17;12.80;;;24.50;99.90;;;;;;4964571;28;20566;-68
2023/08/28 11:47:30;;;;;;;13.97;13.57;;;25.60;99.90;;;;;;4969233;28;20498;-68
2023/08/28 11:49:59;;;;;;;14.10;13.70;;;25.80;99.90;;;;;;4964380;28;20562;-67
2023/08/28 11:52:26;;;;;;;13.40;13.00;;;25.90;99.90;;;;;;4966626;28;20465;-67
2023/08/28 11:54:59;;;;;;;14.17;13.77;;;26.70;99.90;;;;;;4963657;28;20584;-67
2023/08/28 11:57:27;;;;;;;14.13;13.73;;;27.40;99.90;;;;;;4962505;28;20502;-69
2023/08/28 11:59:55;;;;;;;14.20;13.80;;;27.80;99.90;;;;;;4969514;28;20467;-69
2023/08/28 12:02:24;;;;;;;13.77;13.37;;;28.40;99.90;;;;;;4968292;28;20498;-69
2023/08/28 12:04:52;;;;;;;14.17;13.77;;;28.30;99.90;;;;;;4967288;28;20447;-69
2023/08/28 12:07:22;;;;;;;14.43;14.03;;;27.40;99.90;;;;;;4961349;28;20946;-68
2023/08/28 12:09:50;;;;;;;14.13;13.73;;;27.30;99.90;;;;;;4960100;28;20614;-67
2023/08/28 12:12:17;;;;;;;13.23;12.90;;;26.30;99.90;;;;;;4963108;28;20841;-68
2023/08/28 12:14:45;;;;;;;12.60;12.30;;;25.80;99.90;;;;;;4960271;28;20470;-67
2023/08/28 12:17:16;;;;;;;12.10;11.80;;;25.20;99.90;;;;;;4969098;28;20459;-67
2023/08/28 12:19:43;;;;;;;11.97;11.67;;;24.50;99.90;;;;;;4965778;28;20632;-67
2023/08/28 12:22:14;;;;;;;13.60;13.20;;;25.30;99.90;;;;;;4968890;28;20550;-68
2023/08/28 12:24:42;;;;;;;13.03;12.73;;;26.50;99.90;;;;;;4962488;28;20475;-68
2023/08/28 12:27:10;;;;;;;13.77;13.37;;;27.00;99.90;;;;;;4968681;28;20944;-67
2023/08/28 12:29:37;;;;;;;14.00;13.60;;;27.00;99.90;;;;;;4960665;28;20569;-67
2023/08/28 12:32:06;;;;;;;13.77;13.37;;;26.80;99.90;;;;;;4967396;28;20475;-69
2023/08/28 12:34:34;;;;;;;13.90;13.50;;;26.40;99.90;;;;;;4969053;28;20846;-68
2023/08/28 12:37:06;;;;;;;13.40;13.00;;;26.20;99.90;;;;;;4966851;28;20804;-67
2023/08/28 12:39:35;;;;;;;13.37;12.97;;;25.70;99.90;;;;;;4968265;28;20456;-67
2023/08/28 12:42:03;;;;;;;13.40;13.00;;;25.50;99.90;;;;;;4963745;28;20526;-67
2023/08/28 12:44:30;;;;;;;13.00;12.70;;;25.50;99.90;;;;;;4967555;28;20963;-69
2023/08/28 12:46:58;;;;;;;13.87;13.47;;;25.30;99.90;;;;;;4961305;28;20955;-67